createdAt,value
2019-04-26T00:03:43.184Z,2.50
2019-04-26T00:08:53.275Z,3.97
2019-04-26T00:14:10.914Z,5.50
2019-04-26T00:19:14.138Z,6.93
2019-04-26T00:24:17.316Z,2.83
2019-04-26T00:29:19.803Z,4.67
2019-04-26T00:34:22.350Z,3.93
2019-04-26T00:39:25.620Z,5.10
2019-04-26T00:44:28.469Z,2.97
2019-04-26T00:49:43.399Z,6.43
2019-04-26T00:54:39.821Z,4.87
2019-04-26T00:59:42.549Z,3.87
2019-04-26T01:04:45.246Z,7.07
2019-04-26T01:09:49.507Z,5.97
2019-04-26T01:14:51.970Z,4.50
2019-04-26T01:19:56.424Z,8.67
2019-04-26T01:25:01.713Z,6.73
2019-04-26T01:30:08.942Z,7.00
2019-04-26T01:35:11.316Z,3.77
2019-04-26T01:40:18.347Z,5.63
2019-04-26T01:45:33.563Z,11.03
2019-04-26T01:50:36.223Z,9.13
2019-04-26T01:55:38.667Z,3.27
2019-04-26T02:00:56.890Z,4.07
2019-04-26T02:05:59.232Z,5.57
2019-04-26T02:11:01.659Z,4.40
2019-04-26T02:16:04.920Z,2.83
2019-04-26T02:21:23.569Z,4.20
2019-04-26T02:26:37.324Z,4.23
2019-04-26T02:31:42.764Z,3.60
2019-04-26T02:36:56.822Z,2.70
2019-04-26T02:41:56.082Z,3.27
2019-04-26T02:47:46.651Z,4.87
2019-04-26T02:53:15.952Z,6.40
2019-04-26T02:58:21.034Z,4.40
2019-04-26T03:03:29.825Z,3.87
2019-04-26T03:08:35.816Z,13.00
2019-04-26T03:14:10.708Z,4.27
2019-04-26T03:19:32.164Z,5.23
2019-04-26T03:24:43.959Z,4.17
2019-04-26T03:30:22.323Z,5.40
2019-04-26T03:35:43.283Z,7.73
2019-04-26T03:41:00.472Z,9.47
2019-04-26T03:46:59.756Z,5.20
2019-04-26T03:52:24.926Z,8.20
2019-04-26T03:57:42.864Z,4.67
2019-04-26T04:03:11.232Z,9.30
2019-04-26T04:08:19.026Z,3.77
2019-04-26T04:13:45.662Z,7.37
2019-04-26T04:18:54.440Z,5.83
2019-04-26T04:24:02.879Z,3.77
2019-04-26T04:29:46.073Z,6.10
2019-04-26T04:34:48.172Z,3.53
2019-04-26T04:40:40.861Z,4.13
2019-04-26T04:46:19.213Z,2.57
2019-04-26T04:51:54.928Z,5.27
2019-04-26T04:57:24.955Z,2.27
2019-04-26T05:02:46.584Z,2.23
2019-04-26T05:08:22.474Z,2.67
2019-04-26T05:13:46.349Z,4.57
2019-04-26T05:19:52.707Z,1.50
2019-04-26T05:25:43.551Z,1.80
2019-04-26T05:31:08.487Z,4.70
2019-04-26T05:36:27.958Z,2.40
2019-04-26T05:42:06.858Z,2.60
2019-04-26T05:48:02.995Z,4.10
2019-04-26T05:54:18.874Z,1.60
2019-04-26T06:00:02.398Z,2.80
2019-04-26T06:05:59.347Z,1.57
2019-04-26T06:11:22.626Z,1.60
2019-04-26T06:16:52.149Z,1.70
2019-04-26T06:22:06.991Z,3.43
2019-04-26T06:27:37.268Z,5.87
2019-04-26T06:33:06.274Z,2.03
2019-04-26T06:39:04.256Z,1.93
2019-04-26T06:44:14.655Z,5.00
2019-04-26T06:50:11.927Z,2.23
2019-04-26T06:55:45.347Z,2.97
2019-04-26T07:01:20.779Z,2.60
2019-04-26T07:06:34.909Z,2.07
2019-04-26T07:12:14.598Z,3.33
2019-04-26T07:17:25.227Z,2.50
2019-04-26T07:23:12.671Z,8.70
2019-04-26T07:28:34.797Z,3.63
2019-04-26T07:34:13.979Z,4.70
2019-04-26T07:39:35.799Z,7.70
2019-04-26T07:45:10.651Z,6.37
2019-04-26T07:51:06.479Z,3.37
2019-04-26T07:56:48.183Z,3.17
2019-04-26T08:02:28.275Z,2.50
2019-04-26T08:07:35.699Z,5.03
2019-04-26T08:12:41.966Z,3.20
2019-04-26T08:18:00.020Z,4.90
2019-04-26T08:23:16.069Z,2.20
2019-04-26T08:28:16.486Z,3.17
2019-04-26T08:33:26.183Z,3.47
2019-04-26T08:38:29.575Z,3.60
2019-04-26T08:43:59.777Z,3.60
2019-04-26T08:49:23.897Z,2.90
2019-04-26T08:54:32.657Z,2.73
2019-04-26T08:59:39.043Z,6.03
2019-04-26T09:04:53.552Z,2.60
2019-04-26T09:10:01.434Z,4.63
2019-04-26T09:15:09.927Z,2.63
2019-04-26T09:20:38.556Z,2.13
2019-04-26T09:25:44.351Z,2.47
2019-04-26T09:31:19.227Z,2.33
2019-04-26T09:36:20.332Z,8.13
2019-04-26T09:41:30.850Z,2.13
2019-04-26T09:47:03.372Z,2.37
2019-04-26T09:52:10.826Z,3.37
2019-04-26T09:57:13.432Z,2.33
2019-04-26T10:02:15.965Z,1.37
2019-04-26T10:07:18.811Z,2.40
2019-04-26T10:12:33.410Z,2.47
2019-04-26T10:17:35.907Z,2.33
2019-04-26T10:22:43.575Z,2.40
2019-04-26T10:27:45.985Z,2.63
2019-04-26T10:32:48.356Z,1.67
2019-04-26T10:37:52.592Z,4.30
2019-04-26T10:42:54.942Z,3.83
2019-04-26T10:47:57.245Z,2.70
2019-04-26T10:53:09.463Z,5.17
2019-04-26T10:58:18.165Z,4.63
2019-04-26T11:03:20.630Z,2.70
2019-04-26T11:08:24.123Z,3.67
2019-04-26T11:13:26.463Z,2.70
2019-04-26T11:18:28.827Z,1.93
2019-04-26T11:23:32.273Z,2.50
2019-04-26T11:28:36.152Z,3.03
2019-04-26T11:33:44.693Z,3.20
2019-04-26T11:38:42.853Z,3.07
2019-04-26T11:43:45.372Z,2.27
2019-04-26T11:48:58.550Z,2.70
2019-04-26T11:53:52.251Z,3.90
2019-04-26T11:58:56.756Z,3.27
2019-04-26T12:04:18.782Z,6.10
2019-04-26T12:09:33.060Z,4.60
2019-04-26T12:14:38.078Z,3.93
2019-04-26T12:19:40.861Z,5.80
2019-04-26T12:24:43.634Z,3.10
2019-04-26T12:29:49.537Z,4.87
2019-04-26T12:34:53.797Z,3.80
2019-04-26T12:39:57.995Z,3.17
2019-04-26T12:45:19.683Z,5.07
2019-04-26T12:50:22.211Z,3.77
2019-04-26T12:55:25.365Z,3.27
2019-04-26T13:00:33.160Z,4.43
2019-04-26T13:05:33.840Z,4.63
2019-04-26T13:10:54.314Z,2.47
2019-04-26T13:16:09.483Z,3.20
2019-04-26T13:21:11.865Z,2.57
2019-04-26T13:26:14.303Z,3.23
2019-04-26T13:31:16.820Z,1.90
2019-04-26T13:36:19.323Z,3.63
2019-04-26T13:41:22.951Z,5.00
2019-04-26T13:46:50.774Z,3.10
2019-04-26T13:51:53.209Z,2.40
2019-04-26T13:56:55.580Z,2.43
2019-04-26T14:02:10.648Z,2.47
2019-04-26T14:07:02.416Z,2.03
2019-04-26T14:12:17.844Z,1.80
2019-04-26T14:17:09.087Z,1.30
2019-04-26T14:22:14.890Z,1.03
2019-04-26T14:27:20.509Z,1.37
2019-04-26T14:32:24.222Z,1.20
2019-04-26T14:37:26.766Z,1.23
2019-04-26T14:42:34.428Z,1.50
2019-04-26T14:47:46.491Z,1.60
2019-04-26T14:52:37.658Z,1.37
2019-04-26T14:57:40.035Z,1.33
2019-04-26T15:03:00.618Z,1.27
2019-04-26T15:08:11.728Z,1.40
2019-04-26T15:13:20.670Z,1.50
2019-04-26T15:18:19.716Z,1.43
2019-04-26T15:23:25.202Z,1.27
2019-04-26T15:28:26.492Z,1.63
2019-04-26T15:33:36.051Z,2.13
2019-04-26T15:38:44.969Z,1.47
2019-04-26T15:44:03.631Z,1.40
2019-04-26T15:49:29.445Z,1.77
2019-04-26T15:54:43.257Z,2.00
2019-04-26T16:00:13.116Z,1.17
2019-04-26T16:05:29.424Z,3.60
2019-04-26T16:16:36.389Z,2.00
2019-04-26T16:21:39.845Z,2.53
2019-04-26T16:26:55.923Z,2.20
2019-04-26T16:32:25.983Z,2.20
2019-04-26T16:37:35.828Z,2.17
2019-04-26T16:42:43.837Z,3.03
2019-04-26T16:47:48.795Z,1.83
2019-04-26T16:52:52.098Z,1.93
2019-04-26T16:57:58.033Z,2.30
2019-04-26T17:03:06.450Z,2.00
2019-04-26T17:08:09.986Z,1.90
2019-04-26T17:13:09.096Z,2.00
2019-04-26T17:18:12.961Z,2.30
2019-04-26T17:23:43.877Z,1.70
2019-04-26T17:28:46.467Z,2.70
2019-04-26T17:33:49.104Z,2.53
2019-04-26T17:38:51.765Z,1.87
2019-04-26T17:44:08.070Z,2.23
2019-04-26T17:49:02.803Z,1.90
2019-04-26T17:54:33.553Z,3.87
2019-04-26T17:59:13.780Z,1.90
2019-04-26T18:04:14.711Z,1.80
2019-04-26T18:09:38.092Z,1.87
2019-04-26T18:14:29.561Z,2.10
2019-04-26T18:25:25.803Z,2.00
2019-04-26T18:36:06.247Z,2.20
2019-04-26T18:41:09.793Z,2.40
2019-04-26T18:52:15.097Z,2.10
2019-04-26T18:57:17.720Z,4.10
2019-04-26T19:02:28.220Z,2.57
2019-04-26T19:19:59.115Z,2.77
2019-04-26T19:36:47.607Z,2.70
2019-04-26T19:42:13.766Z,3.07
2019-04-26T19:58:57.593Z,4.03
2019-04-26T20:10:05.158Z,4.90
2019-04-26T20:21:34.300Z,5.43
2019-04-26T20:27:03.486Z,6.10
2019-04-26T20:32:42.003Z,9.73
2019-04-26T20:44:04.909Z,6.63
2019-04-26T20:49:01.364Z,5.80
2019-04-26T20:54:05.781Z,6.97
2019-04-26T20:59:08.743Z,8.27
2019-04-26T21:04:33.858Z,7.87
2019-04-26T21:09:19.682Z,8.10
2019-04-26T21:14:22.400Z,7.40
2019-04-26T21:19:25.043Z,6.13
2019-04-26T21:24:32.167Z,9.27
2019-04-26T21:29:59.144Z,6.27
2019-04-26T21:35:00.237Z,7.63
2019-04-26T21:40:16.916Z,7.97
2019-04-26T21:45:21.746Z,11.83
2019-04-26T21:50:25.170Z,10.70
2019-04-26T21:55:35.341Z,9.23
2019-04-26T22:00:46.553Z,9.47
2019-04-26T22:05:51.076Z,10.70
2019-04-26T22:10:54.682Z,8.90
2019-04-26T22:16:03.484Z,9.13
2019-04-26T22:21:16.799Z,10.33
2019-04-26T22:26:20.955Z,10.17
2019-04-26T22:31:25.948Z,10.90
2019-04-26T22:36:30.845Z,11.37
2019-04-26T22:41:33.867Z,10.03
2019-04-26T22:46:58.917Z,10.80
2019-04-26T22:52:17.740Z,10.67
2019-04-26T22:57:27.197Z,10.90
2019-04-26T23:02:31.546Z,11.67
2019-04-26T23:07:43.913Z,10.40
2019-04-26T23:13:04.479Z,12.07
2019-04-26T23:18:43.824Z,13.40
2019-04-26T23:23:46.224Z,13.50
2019-04-26T23:28:48.810Z,10.70
2019-04-26T23:33:51.730Z,13.23
2019-04-26T23:38:54.352Z,15.20
2019-04-26T23:44:02.957Z,12.20
2019-04-26T23:49:03.008Z,11.80
2019-04-26T23:54:05.969Z,11.70
2019-04-26T23:59:09.302Z,11.63
